createdAt,value
2023-08-17T00:00:49.688Z,95.89
2023-08-17T00:03:17.407Z,95.79
2023-08-17T00:05:45.281Z,95.79
2023-08-17T00:08:12.925Z,96.31
2023-08-17T00:10:41.967Z,96.04
2023-08-17T00:13:09.611Z,95.70
2023-08-17T00:15:37.323Z,95.30
2023-08-17T00:18:05.603Z,95.07
2023-08-17T00:20:33.330Z,95.12
2023-08-17T00:23:00.968Z,94.56
2023-08-17T00:25:28.634Z,94.57
2023-08-17T00:27:57.680Z,94.93
2023-08-17T00:30:25.738Z,94.96
2023-08-17T00:32:53.584Z,94.96
2023-08-17T00:35:21.353Z,94.76
2023-08-17T00:37:49.057Z,95.44
2023-08-17T00:40:16.832Z,95.37
2023-08-17T00:42:44.509Z,95.68
2023-08-17T00:45:13.748Z,94.92
2023-08-17T00:47:42.005Z,95.06
2023-08-17T00:50:10.310Z,94.79
2023-08-17T00:52:38.061Z,94.27
2023-08-17T00:55:07.535Z,94.15
2023-08-17T00:57:35.787Z,95.28
2023-08-17T01:00:06.291Z,95.22
2023-08-17T01:02:36.762Z,94.84
2023-08-17T01:05:07.043Z,95.20
2023-08-17T01:07:34.771Z,94.26
2023-08-17T01:10:04.256Z,93.75
2023-08-17T01:12:33.376Z,94.56
2023-08-17T01:15:07.422Z,94.75
2023-08-17T01:17:42.360Z,93.95
2023-08-17T01:20:13.309Z,94.07
2023-08-17T01:22:43.467Z,94.60
2023-08-17T01:25:12.516Z,95.07
2023-08-17T01:27:42.682Z,95.40
2023-08-17T01:30:12.899Z,94.96
2023-08-17T01:32:46.532Z,95.39
2023-08-17T01:35:22.657Z,95.10
2023-08-17T01:37:54.034Z,94.53
2023-08-17T01:40:24.993Z,94.98
2023-08-17T01:42:53.035Z,94.84
2023-08-17T01:45:20.857Z,93.92
2023-08-17T01:47:48.540Z,94.01
2023-08-17T01:50:16.203Z,93.94
2023-08-17T01:52:43.973Z,93.90
2023-08-17T01:55:11.665Z,93.92
2023-08-17T01:57:40.684Z,94.02
2023-08-17T02:00:11.686Z,93.75
2023-08-17T02:02:39.446Z,94.21
2023-08-17T02:05:07.760Z,94.33
2023-08-17T02:07:35.452Z,94.44
2023-08-17T02:10:03.218Z,93.60
2023-08-17T02:12:30.998Z,94.01
2023-08-17T02:15:00.004Z,94.36
2023-08-17T02:17:28.440Z,94.37
2023-08-17T02:19:56.262Z,93.71
2023-08-17T02:22:24.120Z,94.06
2023-08-17T02:24:53.464Z,94.14
2023-08-17T02:27:21.105Z,93.92
2023-08-17T02:29:48.828Z,93.80
2023-08-17T02:32:17.798Z,93.31
2023-08-17T02:34:45.519Z,93.67
2023-08-17T02:37:13.165Z,93.20
2023-08-17T02:39:41.874Z,93.80
2023-08-17T02:42:09.707Z,93.60
2023-08-17T02:44:37.427Z,93.92
2023-08-17T02:47:05.314Z,93.66
2023-08-17T02:49:34.525Z,93.80
2023-08-17T02:52:02.198Z,93.74
2023-08-17T02:54:29.896Z,93.76
2023-08-17T02:56:57.609Z,94.03
2023-08-17T02:59:25.349Z,93.61
2023-08-17T03:01:53.033Z,94.14
2023-08-17T03:04:20.965Z,93.96
2023-08-17T03:06:50.048Z,93.91
2023-08-17T03:09:17.711Z,93.82
2023-08-17T03:11:45.412Z,94.31
2023-08-17T03:14:13.529Z,94.13
2023-08-17T03:16:41.204Z,94.48
2023-08-17T03:19:11.961Z,95.20
2023-08-17T03:21:40.008Z,95.20
2023-08-17T03:24:09.394Z,95.37
2023-08-17T03:26:37.104Z,95.15
2023-08-17T03:29:04.785Z,94.29
2023-08-17T03:31:32.503Z,95.27
2023-08-17T03:34:01.397Z,95.07
2023-08-17T03:36:29.067Z,95.49
2023-08-17T03:38:56.761Z,95.37
2023-08-17T03:41:26.629Z,95.76
2023-08-17T03:43:54.270Z,95.91
2023-08-17T03:46:22.004Z,97.18
2023-08-17T03:48:49.802Z,97.89
2023-08-17T03:51:17.502Z,97.52
2023-08-17T03:53:45.156Z,97.73
2023-08-17T03:56:12.793Z,98.92
2023-08-17T03:58:41.801Z,99.33
2023-08-17T04:01:09.420Z,99.73
2023-08-17T04:03:37.175Z,99.81
2023-08-17T04:06:07.299Z,99.60
2023-08-17T04:08:35.090Z,100.00
2023-08-17T04:11:02.717Z,99.60
2023-08-17T04:13:30.374Z,99.87
2023-08-17T04:15:59.476Z,100.00
2023-08-17T04:18:27.150Z,100.00
2023-08-17T04:20:55.544Z,100.00
2023-08-17T04:23:23.385Z,100.00
2023-08-17T04:25:51.038Z,100.00
2023-08-17T04:28:18.661Z,100.00
2023-08-17T04:30:46.349Z,100.00
2023-08-17T04:33:15.352Z,100.00
2023-08-17T04:35:43.071Z,100.00
2023-08-17T04:38:10.720Z,100.00
2023-08-17T04:40:38.640Z,100.00
2023-08-17T04:43:06.651Z,100.00
2023-08-17T04:45:34.427Z,100.00
2023-08-17T04:48:02.263Z,100.00
2023-08-17T04:50:31.483Z,100.00
2023-08-17T04:52:59.173Z,100.00
2023-08-17T04:55:26.855Z,100.00
2023-08-17T04:57:54.579Z,100.00
2023-08-17T05:00:28.600Z,100.00
2023-08-17T05:02:56.456Z,100.00
2023-08-17T05:05:24.970Z,100.00
2023-08-17T05:07:54.663Z,100.00
2023-08-17T05:10:22.557Z,100.00
2023-08-17T05:12:50.228Z,100.00
2023-08-17T05:15:18.045Z,100.00
2023-08-17T05:17:45.683Z,100.00
2023-08-17T05:20:14.864Z,100.00
2023-08-17T05:22:42.632Z,100.00
2023-08-17T05:25:11.775Z,100.00
2023-08-17T05:27:38.466Z,100.00
2023-08-17T05:30:07.766Z,100.00
2023-08-17T05:32:35.446Z,100.00
2023-08-17T05:35:03.095Z,100.00
2023-08-17T05:37:30.729Z,100.00
2023-08-17T05:39:58.396Z,100.00
2023-08-17T05:42:27.456Z,100.00
2023-08-17T05:44:55.059Z,100.00
2023-08-17T05:47:22.756Z,100.00
2023-08-17T05:49:50.490Z,100.00
2023-08-17T05:52:18.152Z,100.00
2023-08-17T05:54:45.765Z,100.00
2023-08-17T05:57:13.528Z,100.00
2023-08-17T05:59:42.530Z,100.00
2023-08-17T06:02:10.222Z,100.00
2023-08-17T06:04:38.001Z,100.00
2023-08-17T06:07:06.002Z,100.00
2023-08-17T06:09:33.692Z,100.00
2023-08-17T06:12:01.403Z,100.00
2023-08-17T06:14:29.058Z,100.00
2023-08-17T06:16:58.066Z,100.00
2023-08-17T06:19:25.736Z,100.00
2023-08-17T06:21:53.464Z,100.00
2023-08-17T06:24:21.156Z,99.73
2023-08-17T06:26:48.852Z,100.00
2023-08-17T06:29:16.850Z,100.00
2023-08-17T06:31:44.506Z,100.00
2023-08-17T06:34:13.496Z,100.00
2023-08-17T06:36:41.424Z,99.76
2023-08-17T06:39:09.863Z,99.97
2023-08-17T06:41:37.515Z,98.72
2023-08-17T06:44:07.074Z,98.69
2023-08-17T06:46:34.733Z,97.96
2023-08-17T06:49:02.372Z,97.99
2023-08-17T06:51:31.495Z,98.03
2023-08-17T06:53:59.153Z,97.77
2023-08-17T06:56:26.797Z,98.51
2023-08-17T06:58:54.840Z,97.25
2023-08-17T07:01:22.475Z,96.89
2023-08-17T07:03:50.253Z,96.47
2023-08-17T07:06:17.946Z,98.19
2023-08-17T07:08:47.130Z,98.95
2023-08-17T07:11:14.783Z,99.56
2023-08-17T07:13:42.423Z,100.00
2023-08-17T07:16:10.547Z,100.00
2023-08-17T07:18:38.299Z,99.28
2023-08-17T07:21:05.973Z,97.81
2023-08-17T07:23:33.690Z,97.40
2023-08-17T07:26:02.692Z,97.08
2023-08-17T07:28:30.498Z,98.03
2023-08-17T07:30:58.156Z,97.63
2023-08-17T07:33:25.846Z,99.03
2023-08-17T07:35:54.251Z,99.04
2023-08-17T07:38:21.949Z,98.85
2023-08-17T07:40:49.613Z,98.36
2023-08-17T07:43:18.667Z,97.50
2023-08-17T07:45:46.485Z,96.73
2023-08-17T07:48:14.206Z,96.48
2023-08-17T07:50:41.935Z,97.27
2023-08-17T07:53:09.677Z,97.70
2023-08-17T07:55:37.385Z,97.61
2023-08-17T07:58:06.801Z,97.37
2023-08-17T08:00:35.820Z,96.84
2023-08-17T08:03:03.640Z,96.52
2023-08-17T08:05:31.385Z,96.34
2023-08-17T08:07:59.101Z,96.59
2023-08-17T08:10:26.845Z,95.32
2023-08-17T08:12:54.546Z,95.22
2023-08-17T08:15:22.362Z,95.46
2023-08-17T08:17:51.572Z,95.23
2023-08-17T08:20:19.471Z,95.75
2023-08-17T08:22:47.091Z,95.15
2023-08-17T08:25:14.697Z,95.38
2023-08-17T08:27:42.576Z,95.95
2023-08-17T08:30:10.830Z,95.23
2023-08-17T08:32:38.495Z,95.37
2023-08-17T08:35:08.230Z,95.51
2023-08-17T08:37:35.883Z,96.29
2023-08-17T08:40:03.617Z,97.10
2023-08-17T08:42:31.294Z,96.61
2023-08-17T08:44:58.989Z,96.11
2023-08-17T08:47:28.934Z,96.11
2023-08-17T08:50:03.470Z,97.55
2023-08-17T08:52:36.687Z,95.92
2023-08-17T08:55:14.224Z,96.62
2023-08-17T08:57:43.338Z,96.07
2023-08-17T09:00:13.488Z,95.91
2023-08-17T09:02:41.795Z,96.19
2023-08-17T09:05:12.083Z,94.01
2023-08-17T09:07:41.823Z,94.13
2023-08-17T09:10:11.824Z,93.07
2023-08-17T09:12:41.835Z,93.23
2023-08-17T09:15:10.515Z,93.03
2023-08-17T09:17:38.298Z,91.72
2023-08-17T09:20:08.493Z,91.44
2023-08-17T09:22:42.693Z,92.10
2023-08-17T09:25:11.657Z,91.96
2023-08-17T09:27:42.158Z,92.31
2023-08-17T09:30:12.035Z,90.06
2023-08-17T09:32:39.914Z,90.25
2023-08-17T09:35:09.004Z,88.74
2023-08-17T09:37:36.942Z,89.61
2023-08-17T09:40:06.686Z,89.71
2023-08-17T09:42:37.336Z,89.27
2023-08-17T09:45:05.822Z,88.22
2023-08-17T09:47:33.646Z,89.28
2023-08-17T09:50:01.361Z,88.95
2023-08-17T09:52:29.264Z,89.16
2023-08-17T09:54:58.313Z,89.51
2023-08-17T09:57:27.878Z,89.18
2023-08-17T09:59:56.555Z,88.51
2023-08-17T10:02:26.134Z,87.06
2023-08-17T10:04:59.247Z,86.06
2023-08-17T10:07:34.362Z,86.83
2023-08-17T10:10:05.440Z,87.28
2023-08-17T10:12:39.645Z,84.94
2023-08-17T10:15:12.708Z,84.48
2023-08-17T10:17:56.727Z,84.57
2023-08-17T10:20:25.493Z,84.20
2023-08-17T10:23:01.944Z,82.69
2023-08-17T10:25:30.791Z,81.92
2023-08-17T10:28:01.431Z,78.81
2023-08-17T10:30:29.383Z,78.42
2023-08-17T10:32:57.918Z,77.64
2023-08-17T10:35:26.082Z,76.67
2023-08-17T10:37:53.911Z,74.07
2023-08-17T10:40:27.996Z,75.17
2023-08-17T10:42:57.034Z,74.32
2023-08-17T10:45:31.634Z,72.85
2023-08-17T10:48:28.273Z,72.59
2023-08-17T10:51:04.586Z,71.77
2023-08-17T10:53:43.599Z,71.03
2023-08-17T10:56:13.986Z,71.17
2023-08-17T10:58:42.392Z,69.48
2023-08-17T11:01:11.949Z,69.35
2023-08-17T11:03:40.509Z,69.43
2023-08-17T11:06:19.557Z,68.13
2023-08-17T11:08:55.781Z,67.52
2023-08-17T11:11:24.896Z,67.93
2023-08-17T11:13:57.922Z,67.72
2023-08-17T11:16:27.191Z,65.48
2023-08-17T11:18:58.191Z,64.33
2023-08-17T11:21:26.104Z,63.30
2023-08-17T11:23:57.792Z,61.36
2023-08-17T11:26:26.046Z,57.94
2023-08-17T11:28:54.001Z,55.35
2023-08-17T11:31:21.640Z,52.27
2023-08-17T11:36:24.091Z,46.71
2023-08-17T11:38:51.752Z,46.99
2023-08-17T11:41:19.955Z,45.78
2023-08-17T11:43:48.095Z,48.82
2023-08-17T11:46:17.462Z,52.67
2023-08-17T11:48:45.270Z,56.45
2023-08-17T11:51:14.333Z,60.64
2023-08-17T11:53:42.204Z,63.52
2023-08-17T11:56:11.144Z,65.99
2023-08-17T11:58:44.057Z,67.73
2023-08-17T12:01:13.657Z,69.07
2023-08-17T12:03:43.181Z,68.59
2023-08-17T12:06:11.684Z,68.34
2023-08-17T12:08:45.517Z,67.37
2023-08-17T12:11:14.503Z,69.49
2023-08-17T12:13:42.184Z,69.88
2023-08-17T12:16:17.074Z,70.59
2023-08-17T12:18:46.341Z,70.36
2023-08-17T12:21:14.075Z,71.31
2023-08-17T12:23:43.492Z,71.88
2023-08-17T12:26:11.259Z,72.55
2023-08-17T12:28:42.179Z,73.00
2023-08-17T12:31:09.958Z,72.91
2023-08-17T12:33:37.698Z,72.64
2023-08-17T12:36:07.827Z,73.20
2023-08-17T12:38:35.717Z,73.77
2023-08-17T12:41:07.522Z,73.57
2023-08-17T12:43:35.294Z,74.16
2023-08-17T12:46:02.963Z,76.35
2023-08-17T12:51:05.056Z,77.87
2023-08-17T12:53:33.164Z,78.30
2023-08-17T12:56:00.893Z,78.10
2023-08-17T12:58:29.937Z,79.45
2023-08-17T13:00:57.857Z,79.65
2023-08-17T13:03:25.729Z,79.73
2023-08-17T13:05:53.444Z,79.95
2023-08-17T13:08:21.172Z,80.70
2023-08-17T13:10:48.798Z,81.32
2023-08-17T13:13:16.423Z,82.75
2023-08-17T13:15:45.408Z,81.70
2023-08-17T13:18:13.108Z,82.42
2023-08-17T13:20:41.459Z,82.63
2023-08-17T13:23:09.339Z,82.46
2023-08-17T13:25:37.046Z,82.31
2023-08-17T13:28:05.217Z,81.73
2023-08-17T13:30:33.060Z,81.58
2023-08-17T13:33:02.240Z,81.13
2023-08-17T13:35:29.979Z,81.42
2023-08-17T13:37:58.637Z,80.70
2023-08-17T13:40:26.557Z,80.41
2023-08-17T13:42:54.236Z,81.50
2023-08-17T13:45:21.894Z,81.45
2023-08-17T13:47:49.621Z,82.11
2023-08-17T13:50:19.622Z,82.24
2023-08-17T13:52:47.907Z,81.94
2023-08-17T13:55:15.561Z,81.37
2023-08-17T13:57:43.209Z,81.97
2023-08-17T14:00:12.312Z,81.17
2023-08-17T14:02:40.332Z,80.89
2023-08-17T14:05:08.816Z,78.92
2023-08-17T14:07:37.812Z,79.27
2023-08-17T14:10:10.709Z,79.58
2023-08-17T14:12:42.813Z,79.30
2023-08-17T14:15:11.193Z,80.05
2023-08-17T14:17:38.869Z,80.13
2023-08-17T14:20:07.407Z,80.17
2023-08-17T14:22:35.065Z,79.89
2023-08-17T14:25:04.222Z,79.98
2023-08-17T14:27:31.876Z,78.79
2023-08-17T14:30:02.381Z,77.45
2023-08-17T14:32:32.860Z,77.39
2023-08-17T14:35:02.544Z,77.03
2023-08-17T14:37:30.432Z,76.45
2023-08-17T14:39:58.417Z,76.87
2023-08-17T14:42:28.146Z,76.83
2023-08-17T14:44:56.158Z,76.63
2023-08-17T14:47:24.002Z,75.64
2023-08-17T14:49:51.668Z,75.69
2023-08-17T14:52:19.305Z,75.99
2023-08-17T14:54:46.949Z,75.78
2023-08-17T14:57:14.674Z,76.82
2023-08-17T14:59:43.669Z,76.00
2023-08-17T15:02:11.570Z,74.81
2023-08-17T15:04:39.674Z,73.54
2023-08-17T15:07:12.258Z,73.22
2023-08-17T15:09:40.250Z,73.02
2023-08-17T15:12:08.352Z,71.87
2023-08-17T15:14:36.034Z,71.46
2023-08-17T15:17:05.099Z,72.49
2023-08-17T15:19:40.477Z,73.35
2023-08-17T15:22:15.515Z,72.78
2023-08-17T15:24:44.774Z,74.54
2023-08-17T15:27:12.574Z,75.61
2023-08-17T15:29:41.052Z,75.84
2023-08-17T15:32:10.670Z,75.82
2023-08-17T15:34:38.365Z,75.30
2023-08-17T15:37:08.242Z,74.43
2023-08-17T15:39:36.141Z,74.55
2023-08-17T15:42:05.006Z,74.36
2023-08-17T15:44:33.529Z,74.40
2023-08-17T15:47:02.681Z,75.17
2023-08-17T15:49:31.782Z,75.24
2023-08-17T15:51:59.968Z,75.79
2023-08-17T15:54:35.911Z,75.83
2023-08-17T15:57:07.089Z,74.85
2023-08-17T15:59:35.184Z,74.38
2023-08-17T16:02:03.108Z,73.16
2023-08-17T16:04:34.635Z,73.65
2023-08-17T16:07:02.377Z,73.78
2023-08-17T16:09:31.604Z,74.19
2023-08-17T16:12:02.126Z,73.07
2023-08-17T16:14:29.765Z,72.39
2023-08-17T16:16:57.886Z,72.43
2023-08-17T16:19:25.728Z,71.77
2023-08-17T16:21:54.854Z,72.01
2023-08-17T16:24:27.396Z,72.03
2023-08-17T16:26:56.130Z,72.54
2023-08-17T16:29:24.999Z,72.61
2023-08-17T16:32:09.267Z,72.45
2023-08-17T16:34:37.510Z,72.92
2023-08-17T16:37:07.050Z,73.36
2023-08-17T16:39:34.696Z,73.77
2023-08-17T16:42:02.401Z,73.81
2023-08-17T16:44:30.074Z,73.63
2023-08-17T16:46:57.708Z,73.81
2023-08-17T16:51:55.939Z,74.26
2023-08-17T16:54:24.961Z,74.36
2023-08-17T16:56:54.181Z,74.16
2023-08-17T16:59:22.375Z,74.26
2023-08-17T17:01:50.217Z,73.56
2023-08-17T17:04:18.625Z,73.72
2023-08-17T17:06:46.354Z,73.46
2023-08-17T17:09:13.976Z,72.81
2023-08-17T17:11:43.052Z,72.91
2023-08-17T17:14:10.989Z,73.55
2023-08-17T17:16:38.806Z,73.65
2023-08-17T17:19:06.608Z,73.43
2023-08-17T17:21:34.595Z,73.24
2023-08-17T17:24:03.871Z,73.24
2023-08-17T17:26:32.962Z,73.00
2023-08-17T17:29:03.155Z,72.76
2023-08-17T17:31:30.892Z,73.03
2023-08-17T17:33:58.625Z,73.18
2023-08-17T17:36:26.568Z,73.65
2023-08-17T17:38:55.791Z,73.99
2023-08-17T17:41:23.458Z,73.62
2023-08-17T17:43:53.789Z,73.57
2023-08-17T17:46:22.861Z,73.28
2023-08-17T17:48:50.814Z,73.70
2023-08-17T17:51:18.477Z,73.67
2023-08-17T17:53:46.127Z,73.34
2023-08-17T17:56:14.394Z,73.21
2023-08-17T17:58:42.071Z,72.88
2023-08-17T18:01:11.080Z,72.87
2023-08-17T18:03:40.170Z,73.52
2023-08-17T18:06:08.366Z,74.45
2023-08-17T18:08:37.513Z,74.35
2023-08-17T18:11:05.516Z,75.47
2023-08-17T18:13:33.474Z,75.46
2023-08-17T18:16:03.529Z,75.42
2023-08-17T18:18:33.510Z,75.62
2023-08-17T18:21:02.466Z,76.03
2023-08-17T18:23:32.508Z,76.50
2023-08-17T18:26:01.209Z,76.50
2023-08-17T18:28:29.068Z,76.58
2023-08-17T18:30:57.963Z,76.60
2023-08-17T18:33:25.809Z,77.05
2023-08-17T18:35:55.161Z,77.76
2023-08-17T18:38:27.291Z,77.95
2023-08-17T18:40:55.477Z,78.10
2023-08-17T18:43:23.209Z,78.53
2023-08-17T18:45:50.903Z,78.93
2023-08-17T18:48:18.608Z,79.63
2023-08-17T18:50:46.262Z,79.98
2023-08-17T18:53:13.919Z,80.63
2023-08-17T18:55:42.920Z,80.71
2023-08-17T18:58:10.560Z,81.24
2023-08-17T19:00:38.184Z,81.61
2023-08-17T19:03:06.596Z,81.70
2023-08-17T19:05:34.525Z,82.55
2023-08-17T19:08:02.275Z,82.62
2023-08-17T19:10:29.920Z,83.35
2023-08-17T19:12:58.935Z,84.05
2023-08-17T19:15:26.674Z,84.91
2023-08-17T19:17:54.407Z,82.83
2023-08-17T19:20:22.059Z,80.40
2023-08-17T19:22:49.730Z,79.64
2023-08-17T19:25:17.641Z,82.22
2023-08-17T19:27:45.280Z,83.93
2023-08-17T19:30:14.497Z,85.61
2023-08-17T19:32:42.292Z,85.57
2023-08-17T19:35:10.339Z,86.24
2023-08-17T19:37:38.324Z,86.62
2023-08-17T19:40:07.457Z,87.03
2023-08-17T19:42:37.589Z,86.91
2023-08-17T19:45:06.176Z,86.67
2023-08-17T19:47:35.210Z,86.65
2023-08-17T19:50:03.904Z,85.96
2023-08-17T19:52:31.590Z,84.74
2023-08-17T19:54:59.232Z,83.83
2023-08-17T19:57:27.179Z,84.14
2023-08-17T19:59:55.080Z,84.61
2023-08-17T20:02:22.824Z,84.78
2023-08-17T20:04:51.830Z,84.90
2023-08-17T20:07:19.700Z,84.82
2023-08-17T20:09:47.508Z,85.02
2023-08-17T20:12:15.160Z,85.03
2023-08-17T20:14:42.819Z,84.90
2023-08-17T20:17:10.512Z,84.11
2023-08-17T20:19:39.131Z,84.34
2023-08-17T20:22:08.848Z,84.03
2023-08-17T20:24:36.542Z,83.76
2023-08-17T20:27:06.359Z,84.26
2023-08-17T20:29:34.450Z,84.34
2023-08-17T20:32:02.134Z,84.54
2023-08-17T20:34:30.344Z,84.51
2023-08-17T20:36:58.071Z,84.67
2023-08-17T20:39:27.111Z,84.60
2023-08-17T20:41:55.537Z,84.72
2023-08-17T20:44:23.213Z,84.63
2023-08-17T20:46:51.061Z,85.17
2023-08-17T20:49:18.920Z,84.76
2023-08-17T20:51:46.634Z,84.70
2023-08-17T20:54:14.716Z,84.98
2023-08-17T20:56:43.803Z,84.88
2023-08-17T20:59:11.682Z,84.50
2023-08-17T21:01:39.723Z,84.60
2023-08-17T21:04:08.167Z,84.99
2023-08-17T21:06:38.928Z,84.92
2023-08-17T21:09:14.162Z,84.79
2023-08-17T21:11:43.501Z,85.13
2023-08-17T21:14:11.158Z,85.54
2023-08-17T21:16:40.465Z,85.73
2023-08-17T21:19:08.156Z,85.54
2023-08-17T21:21:35.831Z,85.62
2023-08-17T21:24:03.563Z,85.81
2023-08-17T21:26:31.228Z,86.05
2023-08-17T21:29:00.204Z,85.78
2023-08-17T21:31:27.903Z,86.49
2023-08-17T21:33:55.662Z,86.46
2023-08-17T21:36:23.350Z,86.51
2023-08-17T21:38:51.233Z,86.59
2023-08-17T21:41:19.006Z,86.76
2023-08-17T21:43:46.734Z,87.30
2023-08-17T21:46:15.789Z,87.65
2023-08-17T21:48:43.479Z,87.68
2023-08-17T21:51:11.190Z,87.69
2023-08-17T21:53:38.835Z,87.54
2023-08-17T21:56:06.466Z,87.41
2023-08-17T21:58:34.088Z,87.19
2023-08-17T22:01:02.767Z,87.63
2023-08-17T22:03:32.084Z,87.58
2023-08-17T22:06:03.758Z,87.91
2023-08-17T22:08:31.497Z,88.17
2023-08-17T22:10:59.221Z,87.99
2023-08-17T22:13:26.957Z,88.33
2023-08-17T22:15:54.649Z,88.10
2023-08-17T22:18:22.396Z,88.46
2023-08-17T22:20:51.472Z,88.40
2023-08-17T22:23:19.165Z,88.13
2023-08-17T22:25:46.828Z,88.71
2023-08-17T22:28:14.511Z,88.50
2023-08-17T22:30:42.187Z,88.32
2023-08-17T22:33:09.843Z,88.03
2023-08-17T22:35:37.488Z,88.01
2023-08-17T22:38:06.632Z,87.70
2023-08-17T22:40:34.304Z,87.49
2023-08-17T22:43:01.954Z,87.40
2023-08-17T22:45:29.611Z,88.26
2023-08-17T22:47:57.414Z,88.52
2023-08-17T22:50:25.096Z,88.70
2023-08-17T22:52:54.897Z,88.50
2023-08-17T22:55:24.166Z,88.12
2023-08-17T22:57:51.858Z,87.84
2023-08-17T23:00:20.451Z,87.90
2023-08-17T23:02:48.323Z,87.62
2023-08-17T23:05:16.594Z,87.71
2023-08-17T23:07:44.316Z,87.68
2023-08-17T23:10:12.751Z,87.58
2023-08-17T23:12:41.843Z,87.36
2023-08-17T23:15:10.013Z,87.88
2023-08-17T23:17:37.656Z,88.27
2023-08-17T23:20:06.273Z,88.21
2023-08-17T23:22:33.960Z,88.18
2023-08-17T23:25:01.641Z,88.18
2023-08-17T23:27:29.486Z,88.12
2023-08-17T23:29:58.753Z,88.17
2023-08-17T23:32:28.789Z,88.95
2023-08-17T23:34:56.748Z,88.96
2023-08-17T23:37:24.606Z,88.96
2023-08-17T23:39:52.440Z,89.02
2023-08-17T23:42:20.248Z,88.80
2023-08-17T23:44:48.010Z,88.89
2023-08-17T23:47:17.021Z,88.88
2023-08-17T23:49:45.549Z,88.82
2023-08-17T23:52:13.459Z,89.11
2023-08-17T23:54:41.149Z,89.11
2023-08-17T23:57:08.834Z,89.31
2023-08-17T23:59:36.494Z,89.88
